LFGA 200030Z AUTO VRB02KT CAVOK 21/14 Q1021 LFGA 200000Z AUTO 25004KT CAVOK 20/15 Q1021 LFGA 192330Z AUTO 24003KT CAVOK 21/15 Q1021 LFGA 192300Z AUTO 22002KT CAVOK 21/15 Q1021 LFGA 192230Z AUTO VRB02KT CAVOK 22/15 Q1021 LFGA 192200Z AUTO 24003KT CAVOK 23/15 Q1021 LFGA 192130Z AUTO VRB03KT CAVOK 23/15 Q1021 LFGA 192100Z AUTO 26004KT CAVOK 24/14 Q1021 LFGA 192030Z AUTO VRB02KT CAVOK 24/14 Q1021 LFGA 192000Z AUTO 24004KT 210V270 CAVOK 25/14 Q1020 LFGA 191930Z AUTO 23006KT CAVOK 27/13 Q1020 LFGA 191900Z AUTO 20005KT 170V250 CAVOK 27/12 Q1020 LFGA 191830Z AUTO 22005KT CAVOK 28/12 Q1020 LFGA 191800Z AUTO 23008KT 200V260 CAVOK 29/12 Q1020 LFGA 191730Z AUTO 23008KT CAVOK 30/11 Q1020 LFGA 191700Z AUTO 20006KT 140V270 CAVOK 30/11 Q1019 LFGA 191630Z AUTO 22008KT 180V270 CAVOK 30/11 Q1019 LFGA 191600Z AUTO 23008KT 200V270 CAVOK 31/11 Q1019 LFGA 191530Z AUTO VRB04KT CAVOK 29/11 Q1019 LFGA 191500Z AUTO 25016KT CAVOK 29/12 Q1020 LFGA 191430Z AUTO 23009KT CAVOK 31/14 Q1019 LFGA 191400Z AUTO 23009KT CAVOK 30/14 Q1020 LFGA 191330Z AUTO 21011KT CAVOK 32/14 Q1020 LFGA 191300Z AUTO 26011KT 230V290 CAVOK 31/13 Q1020 LFGA 191230Z AUTO 25015KT CAVOK 31/13 Q1020 LFGA 191200Z AUTO 24014KT 200V270 CAVOK 32/12 Q1019 LFGA 191130Z AUTO 24013KT CAVOK 32/12 Q1019 LFGA 191100Z AUTO 24014KT 210V270 CAVOK 32/12 Q1019 LFGA 191030Z AUTO 25015KT 220V280 CAVOK 32/12 Q1020 LFGA 191000Z AUTO VRB03KT CAVOK 31/14 Q1020 LFGA 190930Z AUTO 18006KT 140V230 CAVOK 30/14 Q1020 LFGA 190900Z AUTO 18003KT 120V270 CAVOK 28/15 Q1020 LFGA 190830Z AUTO 18007KT 150V220 CAVOK 27/14 Q1021 LFGA 190800Z AUTO 17009KT CAVOK 25/14 Q1021 LFGA 190730Z AUTO 17007KT 140V200 CAVOK 25/13 Q1021 LFGA 190700Z AUTO 18008KT 140V200 CAVOK 24/13 Q1021 LFGA 190630Z AUTO 18008KT CAVOK 23/13 Q1020 LFGA 190600Z AUTO VRB03KT CAVOK 21/14 Q1020 LFGA 190530Z AUTO 22003KT CAVOK 19/13 Q1020 LFGA 190500Z AUTO 19004KT 160V230 CAVOK 18/13 Q1020 LFGA 190430Z AUTO 20003KT CAVOK 17/12 Q1020 LFGA 190400Z AUTO 18003KT CAVOK 17/11 Q1020 LFGA 190330Z AUTO 18003KT CAVOK 16/11 Q1020 LFGA 190300Z AUTO 23002KT CAVOK 17/12 Q1020 LFGA 190230Z AUTO 23002KT CAVOK 16/12 Q1019 LFGA 190200Z AUTO 24003KT CAVOK 16/12 Q1019 LFGA 190130Z AUTO 26004KT CAVOK 18/12 Q1019 LFGA 190100Z AUTO 27007KT CAVOK 19/12 Q1019 LFGA 190030Z AUTO 27007KT CAVOK 19/12 Q1019 LFGA 190000Z AUTO 27007KT CAVOK 19/12 Q1019 LFGA 182330Z AUTO 27007KT CAVOK 20/12 Q1019 LFGA 182300Z AUTO 27006KT CAVOK 20/12 Q1020 LFGA 182230Z AUTO 27007KT CAVOK 20/13 Q1020 LFGA 182200Z AUTO 28006KT CAVOK 21/13 Q1020 LFGA 182130Z AUTO 28008KT CAVOK 21/13 Q1019 LFGA 182100Z AUTO 27007KT CAVOK 22/13 Q1019 LFGA 182030Z AUTO 27008KT CAVOK 22/13 Q1019 LFGA 182000Z AUTO 27008KT CAVOK 23/14 Q1019 LFGA 181930Z AUTO 28004KT CAVOK 23/14 Q1018 LFGA 181900Z AUTO 32003KT CAVOK 24/14 Q1018 LFGA 181830Z AUTO 02004KT CAVOK 27/13 Q1018 LFGA 181800Z AUTO 03005KT 010V080 CAVOK 28/12 Q1018 LFGA 181730Z AUTO 04006KT CAVOK 29/12 Q1018 LFGA 181700Z AUTO 01008KT CAVOK 29/12 Q1018 LFGA 181630Z AUTO 02005KT 320V080 CAVOK 30/12 Q1018 LFGA 181600Z AUTO 03005KT 310V070 CAVOK 30/12 Q1018 LFGA 181530Z AUTO 05005KT 010V100 CAVOK 30/12 Q1019 LFGA 181500Z AUTO VRB03KT CAVOK 30/12 Q1019 LFGA 181430Z AUTO 36004KT 290V060 CAVOK 30/12 Q1019 LFGA 181400Z AUTO VRB04KT CAVOK 30/12 Q1020 LFGA 181330Z AUTO VRB03KT CAVOK 30/11 Q1020 LFGA 181300Z AUTO VRB03KT CAVOK 29/11 Q1020

METAR Messwerte "COLMAR HOUSSEN" LFGA

Zurück zur Übersicht

Ortsname
Ländercode / m ü. NN
Zeit Temperatur Taupunkt Rel.
Luftfeuchte
Luftdruck:
Altimeter
NN
Station
Wind in Beaufort
(Knoten)
Sichtweite
(Meter)
Wolken
(Meter über Grund)
Wettererscheinung
COLMAR HOUSSEN
FR 191
Fr 20.05. 02:30211464 %1021
1021
998
Uml 1 (2)>= 10000Nicht signifikant 
COLMAR HOUSSEN
FR 191
Fr 20.05. 02:00201573 %1021
1021
998
WSW 2 (4)>= 10000Nicht signifikant 
COLMAR HOUSSEN
FR 191
Fr 20.05. 01:30211569 %1021
1021
998
WSW 2 (3)>= 10000Nicht signifikant 
COLMAR HOUSSEN
FR 191
Fr 20.05. 01:00211569 %1021
1021
998
SW 1 (2)>= 10000Nicht signifikant 
COLMAR HOUSSEN
FR 191
Fr 20.05. 00:30221565 %1021
1020
998
Uml 1 (2)>= 10000Nicht signifikant 
COLMAR HOUSSEN
FR 191
Fr 20.05. 00:00231561 %1021
1020
998
WSW 2 (3)>= 10000Nicht signifikant 
COLMAR HOUSSEN
FR 191
Do 19.05. 23:30231561 %1021
1020
998
Uml 2 (3)>= 10000Nicht signifikant 
COLMAR HOUSSEN
FR 191
Do 19.05. 23:00241454 %1021
1020
998
W 2 (4)>= 10000Nicht signifikant 
COLMAR HOUSSEN
FR 191
Do 19.05. 22:30241454 %1021
1020
998
Uml 1 (2)>= 10000Nicht signifikant 
COLMAR HOUSSEN
FR 191
Do 19.05. 22:00251450 %1020
1019
997
WSW 2 (4)
SSW - W
>= 10000Nicht signifikant 
COLMAR HOUSSEN
FR 191
Do 19.05. 21:30271342 %1020
1019
997
SW 2 (6)>= 10000Nicht signifikant 
COLMAR HOUSSEN
FR 191
Do 19.05. 21:00271239 %1020
1019
997
SSW 2 (5)
S - WSW
>= 10000Nicht signifikant 
COLMAR HOUSSEN
FR 191
Do 19.05. 20:30281237 %1020
1019
997
SW 2 (5)>= 10000Nicht signifikant 
COLMAR HOUSSEN
FR 191
Do 19.05. 20:00291235 %1020
1019
997
SW 3 (8)
SSW - W
>= 10000Nicht signifikant 
COLMAR HOUSSEN
FR 191
Do 19.05. 19:30301131 %1020
1019
997
SW 3 (8)>= 10000Nicht signifikant 
COLMAR HOUSSEN
FR 191
Do 19.05. 19:00301131 %1019
1018
996
SSW 2 (6)
SO - W
>= 10000Nicht signifikant 
COLMAR HOUSSEN
FR 191
Do 19.05. 18:30301131 %1019
1018
996
SW 3 (8)
S - W
>= 10000Nicht signifikant 
COLMAR HOUSSEN
FR 191
Do 19.05. 18:00311129 %1019
1018
996
SW 3 (8)
SSW - W
>= 10000Nicht signifikant 
COLMAR HOUSSEN
FR 191
Do 19.05. 17:30291133 %1019
1018
996
Uml 2 (4)>= 10000Nicht signifikant 
COLMAR HOUSSEN
FR 191
Do 19.05. 17:00291235 %1020
1019
997
WSW 5 (16)>= 10000Nicht signifikant 
COLMAR HOUSSEN
FR 191
Do 19.05. 16:30311436 %1019
1018
996
SW 3 (9)>= 10000Nicht signifikant 
COLMAR HOUSSEN
FR 191
Do 19.05. 16:00301438 %1020
1019
997
SW 3 (9)>= 10000Nicht signifikant 
COLMAR HOUSSEN
FR 191
Do 19.05. 15:30321434 %1020
1019
997
SSW 4 (11)>= 10000Nicht signifikant 
COLMAR HOUSSEN
FR 191
Do 19.05. 15:00311333 %1020
1019
997
W 4 (11)
SW - WNW
>= 10000Nicht signifikant 
COLMAR HOUSSEN
FR 191
Do 19.05. 14:30311333 %1020
1019
997
WSW 4 (15)>= 10000Nicht signifikant 
COLMAR HOUSSEN
FR 191
Do 19.05. 14:00321229 %1019
1018
996
WSW 4 (14)
SSW - W
>= 10000Nicht signifikant 
COLMAR HOUSSEN
FR 191
Do 19.05. 13:30321229 %1019
1018
996
WSW 4 (13)>= 10000Nicht signifikant 
COLMAR HOUSSEN
FR 191
Do 19.05. 13:00321229 %1019
1018
996
WSW 4 (14)
SSW - W
>= 10000Nicht signifikant 
COLMAR HOUSSEN
FR 191
Do 19.05. 12:30321229 %1020
1019
997
WSW 4 (15)
SW - W
>= 10000Nicht signifikant 
COLMAR HOUSSEN
FR 191
Do 19.05. 12:00311436 %1020
1019
997
Uml 2 (3)>= 10000Nicht signifikant 
COLMAR HOUSSEN
FR 191
Do 19.05. 11:30301438 %1020
1019
997
S 2 (6)
SO - SW
>= 10000Nicht signifikant 
COLMAR HOUSSEN
FR 191
Do 19.05. 11:00281545 %1020
1019
997
S 2 (3)
OSO - W
>= 10000Nicht signifikant 
COLMAR HOUSSEN
FR 191
Do 19.05. 10:30271445 %1021
1020
998
S 3 (7)
SSO - SW
>= 10000Nicht signifikant 
COLMAR HOUSSEN
FR 191
Do 19.05. 10:00251450 %1021
1020
998
S 3 (9)>= 10000Nicht signifikant 
COLMAR HOUSSEN
FR 191
Do 19.05. 09:30251347 %1021
1020
998
S 3 (7)
SO - SSW
>= 10000Nicht signifikant 
COLMAR HOUSSEN
FR 191
Do 19.05. 09:00241350 %1021
1020
998
S 3 (8)
SO - SSW
>= 10000Nicht signifikant 
COLMAR HOUSSEN
FR 191
Do 19.05. 08:30231353 %1020
1019
997
S 3 (8)>= 10000Nicht signifikant 
COLMAR HOUSSEN
FR 191
Do 19.05. 08:00211464 %1020
1020
997
Uml 2 (3)>= 10000Nicht signifikant 
COLMAR HOUSSEN
FR 191
Do 19.05. 07:30191368 %1020
1020
997
SW 2 (3)>= 10000Nicht signifikant 
COLMAR HOUSSEN
FR 191
Do 19.05. 07:00181373 %1020
1020
997
S 2 (4)
SSO - SW
>= 10000Nicht signifikant 
COLMAR HOUSSEN
FR 191
Do 19.05. 06:30171272 %1020
1020
997
SSW 2 (3)>= 10000Nicht signifikant 
COLMAR HOUSSEN
FR 191
Do 19.05. 06:00171168 %1020
1020
997
S 2 (3)>= 10000Nicht signifikant 
COLMAR HOUSSEN
FR 191
Do 19.05. 05:30161172 %1020
1020
997
S 2 (3)>= 10000Nicht signifikant 
COLMAR HOUSSEN
FR 191
Do 19.05. 05:00171272 %1020
1020
997
SW 1 (2)>= 10000Nicht signifikant 
COLMAR HOUSSEN
FR 191
Do 19.05. 04:30161277 %1019
1019
996
SW 1 (2)>= 10000Nicht signifikant 
COLMAR HOUSSEN
FR 191
Do 19.05. 04:00161277 %1019
1019
996
WSW 2 (3)>= 10000Nicht signifikant 
COLMAR HOUSSEN
FR 191
Do 19.05. 03:30181268 %1019
1019
996
W 2 (4)>= 10000Nicht signifikant 
COLMAR HOUSSEN
FR 191
Do 19.05. 03:00191264 %1019
1019
996
W 3 (7)>= 10000Nicht signifikant 
COLMAR HOUSSEN
FR 191
Do 19.05. 02:30191264 %1019
1019
996
W 3 (7)>= 10000Nicht signifikant 
COLMAR HOUSSEN
FR 191
Do 19.05. 02:00191264 %1019
1019
996
W 3 (7)>= 10000Nicht signifikant 
COLMAR HOUSSEN
FR 191
Do 19.05. 01:30201260 %1019
1019
996
W 3 (7)>= 10000Nicht signifikant 
COLMAR HOUSSEN
FR 191
Do 19.05. 01:00201260 %1020
1020
997
W 2 (6)>= 10000Nicht signifikant 
COLMAR HOUSSEN
FR 191
Do 19.05. 00:30201364 %1020
1020
997
W 3 (7)>= 10000Nicht signifikant 
COLMAR HOUSSEN
FR 191
Do 19.05. 00:00211360 %1020
1020
997
W 2 (6)>= 10000Nicht signifikant 
COLMAR HOUSSEN
FR 191
Mi 18.05. 23:30211360 %1019
1019
996
W 3 (8)>= 10000Nicht signifikant 
COLMAR HOUSSEN
FR 191
Mi 18.05. 23:00221357 %1019
1018
996
W 3 (7)>= 10000Nicht signifikant 
COLMAR HOUSSEN
FR 191
Mi 18.05. 22:30221357 %1019
1018
996
W 3 (8)>= 10000Nicht signifikant 
COLMAR HOUSSEN
FR 191
Mi 18.05. 22:00231457 %1019
1018
996
W 3 (8)>= 10000Nicht signifikant 
COLMAR HOUSSEN
FR 191
Mi 18.05. 21:30231457 %1018
1017
995
W 2 (4)>= 10000Nicht signifikant 
COLMAR HOUSSEN
FR 191
Mi 18.05. 21:00241454 %1018
1017
995
NW 2 (3)>= 10000Nicht signifikant 
COLMAR HOUSSEN
FR 191
Mi 18.05. 20:30271342 %1018
1017
995
NNO 2 (4)>= 10000Nicht signifikant 
COLMAR HOUSSEN
FR 191
Mi 18.05. 20:00281237 %1018
1017
995
NNO 2 (5)
N - O
>= 10000Nicht signifikant 
COLMAR HOUSSEN
FR 191
Mi 18.05. 19:30291235 %1018
1017
995
NO 2 (6)>= 10000Nicht signifikant 
COLMAR HOUSSEN
FR 191
Mi 18.05. 19:00291235 %1018
1017
995
N 3 (8)>= 10000Nicht signifikant 
COLMAR HOUSSEN
FR 191
Mi 18.05. 18:30301233 %1018
1017
995
NNO 2 (5)
NW - O
>= 10000Nicht signifikant 
COLMAR HOUSSEN
FR 191
Mi 18.05. 18:00301233 %1018
1017
995
NNO 2 (5)
NW - ONO
>= 10000Nicht signifikant 
COLMAR HOUSSEN
FR 191
Mi 18.05. 17:30301233 %1019
1018
996
NO 2 (5)
N - O
>= 10000Nicht signifikant 
COLMAR HOUSSEN
FR 191
Mi 18.05. 17:00301233 %1019
1018
996
Uml 2 (3)>= 10000Nicht signifikant 
COLMAR HOUSSEN
FR 191
Mi 18.05. 16:30301233 %1019
1018
996
N 2 (4)
WNW - ONO
>= 10000Nicht signifikant 
COLMAR HOUSSEN
FR 191
Mi 18.05. 16:00301233 %1020
1019
997
Uml 2 (4)>= 10000Nicht signifikant 
COLMAR HOUSSEN
FR 191
Mi 18.05. 15:30301131 %1020
1019
997
Uml 2 (3)>= 10000Nicht signifikant 
COLMAR HOUSSEN
FR 191
Mi 18.05. 15:00291133 %1020
1019
997
Uml 2 (3)>= 10000Nicht signifikant 

Altimeter: Einstellung am Altimeter (Höhenmesser), die Höhe 0 muss auf diesen Luftdruckwert zeigen, damit das Gerät die Stationshöhe richtig anzeigt.

NN: Luftdruck reduziert auf "Normal Null", auf Meereshöhe, dieser von der Temperatur abhängige Wert wird bisweilen unkorrekt einfach als "Luftdruck" bezeichnet. Eigentlich nur eine fiktive Größe, die es erlaubt, Stationen auf unterschiedlichen Höhen miteinander zu vergleichen.

Station: Realer Luftdruck an der Station.